Time;durP1;ratioP1;P1;durP2;ratioP2;P2;SDS_P1;SDS_P2;PMS_P1;PMS_P2;Temp;Humidity;BMP_temperature;BMP_pressure;BME280_temperature;BME280_humidity;BME280_pressure;Samples;Min_cycle;Max_cycle;Signal;HPM_P1;HPM_P2
2022/04/22 00:00:43;;;;;;;15.65;12.13;;;;;;;5.25;86.71;99237.03;1721814;83;21864;-76
2022/04/22 00:03:11;;;;;;;15.63;12.10;;;;;;;5.24;86.71;99235.30;1716870;82;21091;-74
2022/04/22 00:05:37;;;;;;;15.05;11.53;;;;;;;5.23;86.72;99236.17;1718330;82;21129;-73
2022/04/22 00:08:05;;;;;;;11.85;9.95;;;;;;;5.22;86.73;99237.94;1703841;83;21042;-73
2022/04/22 00:10:32;;;;;;;15.25;10.75;;;;;;;5.23;86.62;99238.36;1708655;83;21098;-74
2022/04/22 00:13:01;;;;;;;13.55;11.12;;;;;;;5.21;86.51;99237.08;1697399;83;21986;-74
2022/04/22 00:15:29;;;;;;;14.50;10.82;;;;;;;5.20;86.57;99233.19;1688589;83;21651;-73
2022/04/22 00:17:56;;;;;;;14.03;11.03;;;;;;;5.17;86.55;99236.70;1715797;82;21120;-73
2022/04/22 00:20:24;;;;;;;12.53;10.63;;;;;;;5.17;86.54;99240.61;1712264;83;21082;-73
2022/04/22 00:22:52;;;;;;;13.75;10.72;;;;;;;5.17;86.52;99241.91;1716309;83;21087;-72
2022/04/22 00:25:19;;;;;;;13.95;10.95;;;;;;;5.16;86.59;99241.52;1702457;83;21239;-74
2022/04/22 00:27:45;;;;;;;12.37;9.45;;;;;;;5.16;86.59;99239.33;1716829;83;20999;-74
2022/04/22 00:30:13;;;;;;;14.40;10.68;;;;;;;5.16;86.59;99236.30;1692550;83;21015;-73
2022/04/22 00:32:40;;;;;;;15.23;11.12;;;;;;;5.16;86.61;99235.42;1695001;83;21118;-73
2022/04/22 00:35:07;;;;;;;14.13;10.82;;;;;;;5.11;86.67;99232.91;1716478;83;21078;-73
2022/04/22 00:37:35;;;;;;;14.47;10.32;;;;;;;5.09;86.74;99225.53;1715727;82;21209;-73
2022/04/22 00:40:01;;;;;;;12.55;9.88;;;;;;;5.10;86.77;99226.42;1712785;83;21102;-73
2022/04/22 00:42:28;;;;;;;13.40;9.98;;;;;;;5.11;86.76;99235.52;1697327;83;21166;-73
2022/04/22 00:44:57;;;;;;;13.40;9.75;;;;;;;5.11;86.82;99232.91;1711561;82;21095;-73
2022/04/22 00:47:25;;;;;;;13.18;10.30;;;;;;;5.07;86.88;99228.63;1702610;83;21534;-73
2022/04/22 00:49:51;;;;;;;11.03;9.63;;;;;;;5.06;86.92;99230.83;1693704;83;21256;-72
2022/04/22 00:52:20;;;;;;;12.18;10.05;;;;;;;5.05;86.95;99233.01;1673114;83;21090;-73
2022/04/22 00:54:48;;;;;;;13.18;10.25;;;;;;;5.04;86.97;99228.66;1666409;84;21087;-73
2022/04/22 00:57:22;;;;;;;12.43;9.53;;;;;;;5.03;87.10;99232.18;1719526;83;21133;-74
2022/04/22 00:59:46;;;;;;;12.58;9.83;;;;;;;5.01;87.17;99228.74;1708572;83;21141;-73
2022/04/22 01:02:14;;;;;;;9.73;8.73;;;;;;;5.02;87.20;99227.84;1701070;83;21208;-74
2022/04/22 01:10:12;;;;;;;11.45;8.35;;;;;;;5.00;87.32;99223.95;1713487;83;20239;-75
2022/04/22 01:12:40;;;;;;;10.32;8.95;;;;;;;5.00;87.30;99231.77;1700070;83;21138;-73
2022/04/22 01:15:08;;;;;;;9.93;8.85;;;;;;;4.99;87.30;99236.59;1711985;83;21097;-75
2022/04/22 01:17:37;;;;;;;12.07;8.48;;;;;;;4.98;87.39;99234.00;1696085;82;20953;-75
2022/04/22 01:20:06;;;;;;;9.80;8.58;;;;;;;4.99;87.39;99234.41;1688988;83;21134;-74
2022/04/22 01:22:33;;;;;;;9.20;8.18;;;;;;;5.00;87.29;99227.01;1712428;83;22265;-75
2022/04/22 01:25:01;;;;;;;10.82;8.95;;;;;;;4.98;87.27;99228.79;1721286;82;21647;-75
2022/04/22 01:27:29;;;;;;;10.55;8.40;;;;;;;4.95;87.20;99224.47;1683297;83;21589;-76
2022/04/22 01:30:01;;;;;;;8.58;7.67;;;;;;;4.95;87.15;99230.14;1686656;83;21137;-75
2022/04/22 01:32:30;;;;;;;10.90;8.23;;;;;;;4.94;87.16;99225.80;1707651;83;21085;-75
2022/04/22 01:34:57;;;;;;;8.48;7.42;;;;;;;4.91;87.17;99227.14;1713576;83;21043;-75
2022/04/22 01:37:24;;;;;;;9.18;7.75;;;;;;;4.88;87.19;99227.22;1713831;83;21138;-75
2022/04/22 01:39:50;;;;;;;9.70;7.30;;;;;;;4.87;87.25;99225.48;1710413;83;22159;-76
2022/04/22 01:42:18;;;;;;;9.73;8.30;;;;;;;4.87;87.22;99218.97;1710589;83;21531;-76
2022/04/22 01:44:47;;;;;;;11.48;7.97;;;;;;;4.83;87.26;99226.83;1710530;83;21082;-74
2022/04/22 01:47:14;;;;;;;11.12;8.10;;;;;;;4.81;87.35;99219.94;1713908;83;21212;-76
2022/04/22 01:49:43;;;;;;;8.93;7.75;;;;;;;4.80;87.41;99225.57;1717873;82;21142;-75
2022/04/22 01:52:10;;;;;;;9.50;7.70;;;;;;;4.79;87.47;99221.27;1712940;83;21074;-76
2022/04/22 01:54:37;;;;;;;10.30;8.13;;;;;;;4.77;87.57;99215.19;1712194;83;21086;-76
2022/04/22 01:57:04;;;;;;;9.30;8.25;;;;;;;4.76;87.66;99218.70;1709656;83;21143;-75
2022/04/22 01:59:33;;;;;;;10.20;7.92;;;;;;;4.76;87.74;99219.16;1706983;83;21086;-75
2022/04/22 02:01:59;;;;;;;9.48;8.13;;;;;;;4.77;87.76;99219.55;1699352;83;21054;-75
2022/04/22 02:04:26;;;;;;;9.90;8.53;;;;;;;4.78;87.82;99222.14;1709651;83;21228;-76
2022/04/22 02:06:53;;;;;;;11.70;8.68;;;;;;;4.77;87.91;99222.16;1699177;83;21127;-75
2022/04/22 02:09:21;;;;;;;10.40;8.30;;;;;;;4.77;87.91;99221.70;1708636;83;21002;-75
2022/04/22 02:11:48;;;;;;;9.93;8.30;;;;;;;4.78;87.95;99228.66;1707610;82;21157;-74
2022/04/22 02:14:14;;;;;;;12.47;9.23;;;;;;;4.79;88.03;99223.87;1709450;83;21201;-75
2022/04/22 02:16:42;;;;;;;12.88;9.58;;;;;;;4.79;88.11;99223.87;1694857;83;21122;-74
2022/04/22 02:19:10;;;;;;;13.95;9.45;;;;;;;4.81;88.18;99226.45;1710606;83;21082;-75
2022/04/22 02:21:37;;;;;;;10.78;9.63;;;;;;;4.82;88.26;99221.22;1699710;83;21058;-75
2022/04/22 02:24:06;;;;;;;13.20;10.18;;;;;;;4.82;88.32;99225.13;1700378;82;21638;-74
2022/04/22 02:28:31;;;;;;;12.90;10.08;;;;;;;4.81;88.40;99216.87;1673952;83;21533;-75
2022/04/22 02:29:02;;;;;;;13.93;10.13;;;;;;;4.82;88.52;99217.31;1700314;83;21160;-76
2022/04/22 02:31:28;;;;;;;15.23;11.15;;;;;;;4.84;88.56;99222.05;1714304;83;21007;-74
2022/04/22 02:33:56;;;;;;;14.93;11.03;;;;;;;4.86;88.65;99228.97;1705286;82;21146;-75
2022/04/22 02:36:23;;;;;;;14.03;10.05;;;;;;;4.86;88.71;99231.57;1714264;83;21115;-75
2022/04/22 02:38:49;;;;;;;11.60;9.23;;;;;;;4.89;88.75;99225.02;1674614;83;21577;-75
2022/04/22 02:46:48;;;;;;;;;;;;;;;4.91;88.93;99225.84;1692308;82;20276;-75
2022/04/22 02:49:15;;;;;;;13.45;9.60;;;;;;;4.90;88.99;99224.14;1689179;83;20405;-74
2022/04/22 02:51:42;;;;;;;14.40;10.23;;;;;;;4.90;89.10;99233.27;1686137;83;21564;-74
2022/04/22 02:54:10;;;;;;;13.90;10.28;;;;;;;4.89;89.20;99228.92;1698290;83;21059;-75
2022/04/22 02:56:37;;;;;;;12.45;10.13;;;;;;;4.90;89.27;99230.66;1681648;83;21571;-74
2022/04/22 02:59:05;;;;;;;10.88;9.78;;;;;;;4.91;89.32;99229.75;1704292;82;21095;-76
2022/04/22 03:01:34;;;;;;;10.63;9.53;;;;;;;4.92;89.40;99236.70;1708863;83;21082;-76
2022/04/22 03:04:04;;;;;;;10.72;9.60;;;;;;;4.93;89.46;99237.13;1708566;83;21347;-75
2022/04/22 03:06:32;;;;;;;11.50;9.50;;;;;;;4.93;89.54;99236.67;1670410;83;39061;-75
2022/04/22 03:08:59;;;;;;;10.68;9.58;;;;;;;4.96;89.55;99233.14;1696965;81;21122;-73
2022/04/22 03:11:27;;;;;;;10.53;9.20;;;;;;;4.98;89.56;99231.39;1682164;84;21063;-76
2022/04/22 03:13:55;;;;;;;12.82;10.23;;;;;;;4.99;89.61;99239.61;1681051;83;21645;-75
2022/04/22 03:16:25;;;;;;;13.15;10.48;;;;;;;5.00;89.78;99242.66;1708421;83;21047;-75
2022/04/22 03:18:54;;;;;;;13.10;10.45;;;;;;;5.03;89.79;99237.39;1710475;82;21058;-74
2022/04/22 03:21:22;;;;;;;14.70;10.72;;;;;;;5.04;89.82;99241.70;1701135;83;21485;-74
2022/04/22 03:23:49;;;;;;;14.35;10.68;;;;;;;5.06;89.85;99245.17;1714506;83;21101;-74
2022/04/22 03:26:18;;;;;;;12.10;10.80;;;;;;;5.08;89.87;99238.17;1709777;83;21076;-75
2022/04/22 03:28:47;;;;;;;14.18;11.12;;;;;;;5.09;89.86;99250.31;1694097;83;21143;-75
2022/04/22 03:31:15;;;;;;;12.58;10.82;;;;;;;5.09;89.86;99245.09;1700891;83;21632;-75
2022/04/22 03:33:41;;;;;;;15.40;11.53;;;;;;;5.10;89.92;99252.50;1692636;83;21122;-75
2022/04/22 03:36:09;;;;;;;13.30;11.03;;;;;;;5.09;90.00;99246.39;1679626;83;21063;-75
2022/04/22 03:38:36;;;;;;;14.98;11.00;;;;;;;5.11;90.04;99245.07;1709214;82;21035;-75
2022/04/22 03:41:04;;;;;;;13.93;11.10;;;;;;;5.10;90.06;99249.44;1707584;83;21087;-76
2022/04/22 03:43:32;;;;;;;18.65;12.00;;;;;;;5.10;90.14;99252.05;1714520;83;21549;-75
2022/04/22 03:45:59;;;;;;;12.58;11.00;;;;;;;5.10;90.17;99256.41;1698447;83;21208;-75
2022/04/22 03:48:26;;;;;;;13.53;10.63;;;;;;;5.10;90.19;99252.05;1692919;83;21608;-75
2022/04/22 03:50:53;;;;;;;14.33;10.98;;;;;;;5.12;90.19;99252.88;1710543;83;21106;-75
2022/04/22 03:53:19;;;;;;;13.30;10.58;;;;;;;5.12;90.22;99262.00;1702698;83;21107;-75
2022/04/22 03:55:47;;;;;;;14.58;11.05;;;;;;;5.12;90.27;99263.30;1681926;83;21101;-76
2022/04/22 03:58:17;;;;;;;13.13;10.13;;;;;;;5.13;90.31;99258.52;1679253;83;22216;-74
2022/04/22 04:00:50;;;;;;;10.55;8.95;;;;;;;5.17;90.26;99258.02;1703687;83;21000;-76
2022/04/22 04:03:21;;;;;;;11.40;10.18;;;;;;;5.16;90.23;99257.17;1705428;83;21063;-76
2022/04/22 04:05:49;;;;;;;10.85;9.73;;;;;;;5.16;90.28;99261.08;1710257;82;21130;-75
2022/04/22 04:08:20;;;;;;;10.85;9.38;;;;;;;5.17;90.27;99259.32;1694482;83;21051;-75
2022/04/22 04:16:19;;;;;;;11.22;8.88;;;;;;;5.18;90.38;99255.84;1681680;84;21095;-75
2022/04/22 04:18:45;;;;;;;13.75;9.73;;;;;;;5.18;90.40;99259.30;1677574;84;21094;-76
2022/04/22 04:24:10;;;;;;;9.30;8.35;;;;;;;5.21;90.39;99264.89;1647752;85;21010;-75
2022/04/22 04:26:36;;;;;;;11.40;8.63;;;;;;;5.21;90.44;99265.77;1627953;86;21620;-76
2022/04/22 04:29:04;;;;;;;9.85;8.75;;;;;;;5.22;90.49;99266.63;1682120;84;21130;-76
2022/04/22 04:31:33;;;;;;;10.85;8.65;;;;;;;5.24;90.52;99265.30;1683782;84;21587;-76
2022/04/22 04:34:01;;;;;;;11.88;10.15;;;;;;;5.25;90.51;99260.51;1663681;84;21138;-76
2022/04/22 04:36:28;;;;;;;15.35;11.18;;;;;;;5.28;90.59;99263.04;1678759;84;21071;-76
2022/04/22 04:38:55;;;;;;;13.65;10.30;;;;;;;5.30;90.57;99269.12;1673254;84;21177;-76
2022/04/22 04:41:23;;;;;;;11.95;10.08;;;;;;;5.33;90.56;99275.56;1679134;84;21126;-76
2022/04/22 04:43:49;;;;;;;11.90;10.60;;;;;;;5.35;90.56;99271.20;1676798;84;21134;-76
2022/04/22 04:46:16;;;;;;;10.78;9.75;;;;;;;5.35;90.62;99270.75;1667524;84;21221;-74
2022/04/22 04:48:42;;;;;;;11.10;9.90;;;;;;;5.35;90.69;99276.42;1681885;84;21038;-75
2022/04/22 04:51:10;;;;;;;10.90;9.80;;;;;;;5.37;90.77;99273.33;1675061;84;21050;-75
2022/04/22 04:53:38;;;;;;;11.53;10.03;;;;;;;5.40;90.85;99273.28;1681796;84;21090;-75
2022/04/22 04:56:06;;;;;;;11.97;10.58;;;;;;;5.43;90.88;99278.88;1675784;84;22244;-75
2022/04/22 04:58:33;;;;;;;11.30;9.78;;;;;;;5.43;91.03;99273.23;1675199;84;21265;-75
2022/04/22 05:01:01;;;;;;;12.20;9.95;;;;;;;5.49;91.14;99274.86;1684731;84;21592;-75
2022/04/22 05:03:29;;;;;;;12.45;10.48;;;;;;;5.52;91.08;99285.25;1674230;84;22076;-75
2022/04/22 05:05:57;;;;;;;11.75;10.60;;;;;;;5.52;91.10;99283.49;1691383;83;21142;-76
2022/04/22 05:08:25;;;;;;;12.88;11.43;;;;;;;5.53;91.08;99287.84;1707363;83;21169;-74
2022/04/22 05:10:52;;;;;;;15.10;11.28;;;;;;;5.57;91.04;99297.31;1671269;84;22320;-76
2022/04/22 05:13:21;;;;;;;12.80;11.53;;;;;;;5.58;90.97;99296.44;1666697;84;21031;-76
2022/04/22 05:15:50;;;;;;;16.12;11.90;;;;;;;5.59;90.96;99290.31;1640993;86;21204;-76
2022/04/22 05:18:18;;;;;;;14.83;12.88;;;;;;;5.59;90.98;99299.45;1669586;84;21192;-76
2022/04/22 05:20:46;;;;;;;12.80;11.25;;;;;;;5.62;90.96;99293.78;1633303;85;21132;-76
2022/04/22 05:23:12;;;;;;;13.72;12.23;;;;;;;5.65;90.96;99298.92;1652614;85;21614;-76
2022/04/22 05:25:39;;;;;;;15.32;12.65;;;;;;;5.65;90.94;99301.53;1642688;85;21173;-76
2022/04/22 05:28:07;;;;;;;13.70;12.23;;;;;;;5.67;90.92;99303.70;1637493;85;21139;-76
2022/04/22 05:33:21;;;;;;;16.05;12.37;;;;;;;5.71;90.92;99307.95;1661718;84;21185;-76
2022/04/22 05:35:50;;;;;;;15.23;13.13;;;;;;;5.71;90.86;99305.34;1676202;84;21493;-75
2022/04/22 05:38:24;;;;;;;15.83;13.13;;;;;;;5.72;90.87;99307.94;1662717;83;21694;-75
2022/04/22 05:40:52;;;;;;;15.20;13.10;;;;;;;5.76;90.86;99315.26;1667534;84;21179;-75
2022/04/22 05:43:19;;;;;;;14.73;12.55;;;;;;;5.79;90.81;99317.81;1671559;83;21156;-76
2022/04/22 05:45:46;;;;;;;15.63;13.25;;;;;;;5.80;90.76;99320.86;1671058;84;21079;-77
2022/04/22 05:48:13;;;;;;;18.35;14.03;;;;;;;5.82;90.77;99327.36;1684127;83;21154;-76
2022/04/22 05:50:42;;;;;;;18.67;14.30;;;;;;;5.83;90.73;99323.84;1700138;83;21110;-75
2022/04/22 05:53:08;;;;;;;15.13;13.22;;;;;;;5.87;90.63;99327.68;1706354;83;21053;-76
2022/04/22 05:55:37;;;;;;;16.95;14.53;;;;;;;5.88;90.61;99327.23;1703700;83;21012;-76
2022/04/22 05:58:03;;;;;;;19.85;14.35;;;;;;;5.89;90.60;99329.81;1703228;83;21031;-76
2022/04/22 06:00:32;;;;;;;18.95;14.73;;;;;;;5.91;90.56;99331.94;1699273;83;22332;-76
2022/04/22 06:03:00;;;;;;;15.85;13.90;;;;;;;5.94;90.45;99331.04;1693623;83;21173;-76
2022/04/22 06:05:27;;;;;;;16.48;14.68;;;;;;;5.95;90.45;99333.62;1700959;82;21173;-75
2022/04/22 06:10:41;;;;;;;19.73;14.25;;;;;;;5.99;90.46;99324.02;1702658;83;21112;-73
2022/04/22 06:13:09;;;;;;;16.77;14.98;;;;;;;6.03;90.34;99332.19;1704284;83;21066;-74
2022/04/22 06:15:37;;;;;;;18.02;14.60;;;;;;;6.04;90.29;99328.70;1698645;83;21102;-75
2022/04/22 06:18:06;;;;;;;16.48;13.80;;;;;;;6.04;90.22;99333.92;1679470;84;21155;-74
2022/04/22 06:20:34;;;;;;;18.52;13.98;;;;;;;6.06;90.25;99337.36;1670173;84;21171;-74
2022/04/22 06:23:02;;;;;;;16.45;14.35;;;;;;;6.09;90.21;99339.92;1667071;84;21037;-75
2022/04/22 06:25:30;;;;;;;16.50;14.28;;;;;;;6.12;90.16;99337.70;1660315;84;21682;-74
2022/04/22 06:27:58;;;;;;;16.52;13.88;;;;;;;6.12;90.22;99334.64;1670973;84;21151;-74
2022/04/22 06:30:25;;;;;;;17.82;14.58;;;;;;;6.15;90.21;99346.77;1677680;84;21065;-74
2022/04/22 06:32:55;;;;;;;18.12;15.08;;;;;;;6.18;90.08;99342.79;1681645;84;21096;-75
2022/04/22 06:35:22;;;;;;;20.17;15.68;;;;;;;6.21;90.03;99349.72;1668978;84;21188;-74
2022/04/22 06:37:52;;;;;;;23.38;15.75;;;;;;;6.21;89.99;99344.05;1681177;84;21147;-74
2022/04/22 06:45:52;;;;;;;21.95;16.37;;;;;;;6.25;89.90;99356.14;1670818;84;21408;-75
2022/04/22 06:48:21;;;;;;;18.62;15.38;;;;;;;6.26;89.98;99364.41;1668902;84;21615;-74
2022/04/22 06:50:50;;;;;;;20.75;15.80;;;;;;;6.27;89.98;99359.61;1678634;84;21104;-74
2022/04/22 06:53:19;;;;;;;18.85;15.88;;;;;;;6.31;89.98;99363.87;1678879;84;20969;-73
2022/04/22 06:55:47;;;;;;;24.10;16.57;;;;;;;6.32;89.91;99362.99;1660685;83;21638;-74
2022/04/22 06:58:17;;;;;;;20.80;16.85;;;;;;;6.33;89.92;99362.08;1672978;84;21138;-74
2022/04/22 07:00:46;;;;;;;20.48;16.37;;;;;;;6.35;89.79;99366.42;1660208;85;21131;-74
2022/04/22 07:03:15;;;;;;;19.92;16.45;;;;;;;6.37;89.69;99365.94;1648226;84;21145;-74
2022/04/22 07:05:46;;;;;;;21.97;17.52;;;;;;;6.39;89.70;99361.54;1649509;84;21316;-73
2022/04/22 07:08:14;;;;;;;22.25;16.27;;;;;;;6.40;89.74;99361.97;1689738;83;21035;-75
2022/04/22 07:10:47;;;;;;;22.52;17.32;;;;;;;6.44;89.72;99361.00;1686680;82;21118;-75
2022/04/22 07:13:19;;;;;;;20.82;17.07;;;;;;;6.48;89.64;99367.91;1693542;82;21133;-74
2022/04/22 07:15:47;;;;;;;21.33;18.30;;;;;;;6.49;89.52;99365.72;1703911;83;21920;-73
2022/04/22 07:18:16;;;;;;;24.65;18.92;;;;;;;6.51;89.55;99374.38;1689051;83;21197;-73
2022/04/22 07:20:45;;;;;;;21.10;17.00;;;;;;;6.53;89.61;99367.81;1700850;83;21067;-75
2022/04/22 07:23:14;;;;;;;21.52;16.80;;;;;;;6.57;89.55;99366.39;1650878;85;21174;-75
2022/04/22 07:25:44;;;;;;;23.00;18.75;;;;;;;6.62;89.52;99370.23;1698573;83;21712;-74
2022/04/22 07:28:14;;;;;;;21.50;17.95;;;;;;;6.65;89.49;99372.33;1705039;82;21064;-74
2022/04/22 07:30:46;;;;;;;24.37;17.98;;;;;;;6.66;89.38;99364.91;1688204;83;21004;-74
2022/04/22 07:33:11;;;;;;;23.07;17.67;;;;;;;6.70;89.18;99370.47;1717554;82;21063;-74
2022/04/22 07:35:40;;;;;;;21.52;18.12;;;;;;;6.71;88.99;99368.74;1692542;82;21092;-73
2022/04/22 07:38:14;;;;;;;28.05;18.92;;;;;;;6.71;88.95;99372.66;1709468;83;21079;-75
2022/04/22 07:40:42;;;;;;;20.02;17.23;;;;;;;6.71;88.90;99379.20;1696532;82;21762;-74
2022/04/22 07:48:40;;;;;;;24.25;18.85;;;;;;;6.76;88.59;99385.62;1704301;83;21181;-75
2022/04/22 07:51:07;;;;;;;23.80;18.00;;;;;;;6.79;88.70;99385.56;1694618;83;21675;-76
2022/04/22 07:53:35;;;;;;;20.17;17.67;;;;;;;6.80;88.44;99389.91;1716017;82;21058;-75
2022/04/22 07:56:06;;;;;;;28.25;18.45;;;;;;;6.81;88.42;99392.49;1704473;83;21126;-75
2022/04/22 07:58:33;;;;;;;24.40;18.32;;;;;;;6.82;88.39;99388.97;1705254;82;21130;-76
2022/04/22 08:01:01;;;;;;;22.50;18.95;;;;;;;6.84;88.39;99383.28;1702499;82;21197;-75
2022/04/22 08:03:29;;;;;;;23.67;17.92;;;;;;;6.86;88.11;99377.56;1712196;83;21534;-75
2022/04/22 08:05:56;;;;;;;21.42;18.48;;;;;;;6.86;87.97;99374.95;1718329;83;21498;-76
2022/04/22 08:08:28;;;;;;;25.88;19.40;;;;;;;6.88;88.02;99374.91;1701591;83;21075;-75
2022/04/22 08:10:55;;;;;;;21.35;17.20;;;;;;;6.92;88.02;99383.09;1675062;84;21582;-75
2022/04/22 08:13:24;;;;;;;22.13;18.62;;;;;;;6.95;87.78;99380.88;1678483;83;21057;-75
2022/04/22 08:15:51;;;;;;;26.15;18.87;;;;;;;6.96;87.65;99384.77;1679884;84;21111;-74
2022/04/22 08:18:19;;;;;;;25.25;20.17;;;;;;;6.98;87.70;99391.27;1676534;84;21725;-75
2022/04/22 08:20:47;;;;;;;24.67;20.55;;;;;;;7.00;87.62;99392.94;1675408;84;21142;-75
2022/04/22 08:23:16;;;;;;;25.52;19.98;;;;;;;7.01;87.28;99394.67;1678153;84;21116;-75
2022/04/22 08:25:44;;;;;;;25.12;19.85;;;;;;;7.00;87.28;99398.17;1669185;84;21638;-75
2022/04/22 08:28:11;;;;;;;27.87;20.65;;;;;;;7.00;87.27;99396.87;1677902;84;21007;-75
2022/04/22 08:30:38;;;;;;;26.42;20.20;;;;;;;7.01;87.11;99409.06;1667788;84;21890;-74
2022/04/22 08:33:06;;;;;;;27.07;20.75;;;;;;;7.02;86.91;99410.77;1674645;84;20911;-74
2022/04/22 08:35:36;;;;;;;27.82;20.72;;;;;;;7.02;86.98;99418.62;1677170;84;21085;-74
2022/04/22 08:38:06;;;;;;;27.40;20.30;;;;;;;7.01;86.98;99416.91;1687443;84;21208;-74
2022/04/22 08:40:37;;;;;;;27.05;20.60;;;;;;;7.01;86.88;99412.98;1672931;84;21085;-74
2022/04/22 08:43:05;;;;;;;24.77;20.20;;;;;;;7.03;86.86;99411.20;1677911;84;21183;-74
2022/04/22 08:45:33;;;;;;;24.65;19.82;;;;;;;7.03;86.66;99412.50;1682183;84;21049;-73
2022/04/22 08:50:51;;;;;;;24.77;19.00;;;;;;;7.06;86.74;99412.86;1643618;85;21085;-73
2022/04/22 08:53:21;;;;;;;24.70;19.48;;;;;;;7.10;86.92;99412.38;1666551;84;21107;-73
2022/04/22 08:55:56;;;;;;;26.97;20.20;;;;;;;7.15;87.05;99413.98;1683843;84;21184;-74
2022/04/22 08:58:23;;;;;;;26.68;21.48;;;;;;;7.15;86.67;99414.44;1681025;84;21156;-73
2022/04/22 09:00:50;;;;;;;25.12;18.82;;;;;;;7.16;86.66;99405.68;1685419;84;21536;-74
2022/04/22 09:03:17;;;;;;;27.85;20.08;;;;;;;7.18;86.61;99409.14;1672809;84;21528;-74
2022/04/22 09:05:44;;;;;;;26.90;20.55;;;;;;;7.17;86.47;99407.41;1678514;84;21045;-75
2022/04/22 09:08:12;;;;;;;26.02;19.85;;;;;;;7.17;86.46;99407.41;1677370;84;21225;-75
2022/04/22 09:10:40;;;;;;;26.48;19.75;;;;;;;7.15;86.55;99414.44;1686870;84;21046;-74
2022/04/22 09:13:10;;;;;;;25.62;19.77;;;;;;;7.15;86.42;99409.21;1692315;84;21078;-75
2022/04/22 09:15:41;;;;;;;27.02;18.70;;;;;;;7.15;86.31;99410.06;1681478;84;21320;-74
2022/04/22 09:18:12;;;;;;;28.83;20.15;;;;;;;7.13;86.20;99408.36;1681729;84;21190;-73
2022/04/22 09:20:41;;;;;;;27.93;19.77;;;;;;;7.10;86.14;99418.46;1677714;84;21127;-74
2022/04/22 09:23:32;;;;;;;24.10;18.55;;;;;;;7.07;86.27;99419.38;1689418;83;21075;-75
2022/04/22 09:26:03;;;;;;;23.83;19.45;;;;;;;7.09;86.29;99431.12;1681585;84;21673;-75
2022/04/22 09:28:31;;;;;;;24.15;19.05;;;;;;;7.11;86.43;99433.70;1682088;84;21130;-74
2022/04/22 09:31:03;;;;;;;27.70;19.35;;;;;;;7.13;86.50;99434.52;1695665;83;21019;-74
2022/04/22 09:33:43;;;;;;;23.20;18.45;;;;;;;7.15;86.35;99438.84;1690543;84;21712;-75
2022/04/22 09:45:08;;;;;;;28.83;20.45;;;;;;;7.16;86.35;99437.96;1662914;85;21471;-74
2022/04/22 09:47:36;;;;;;;26.82;19.87;;;;;;;7.15;86.37;99437.99;1685981;84;21226;-74
2022/04/22 09:50:11;;;;;;;27.85;21.27;;;;;;;7.15;86.41;99447.15;1689148;84;21071;-75
2022/04/22 09:52:43;;;;;;;26.10;19.17;;;;;;;7.17;86.40;99446.20;1683962;84;21119;-75
2022/04/22 09:55:15;;;;;;;27.70;20.37;;;;;;;7.19;86.38;99448.79;1676792;84;21116;-74
2022/04/22 09:57:58;;;;;;;28.70;20.08;;;;;;;7.20;86.39;99447.91;1674826;84;21139;-74
2022/04/22 10:00:33;;;;;;;25.50;19.73;;;;;;;7.22;86.47;99448.73;1644199;86;21175;-75
2022/04/22 10:03:01;;;;;;;23.83;18.90;;;;;;;7.26;86.39;99443.83;1632598;87;21216;-74
2022/04/22 10:05:31;;;;;;;27.27;19.75;;;;;;;7.27;86.26;99456.03;1632260;87;21202;-74
2022/04/22 10:08:00;;;;;;;28.80;21.00;;;;;;;7.25;86.34;99444.73;1631310;87;21562;-75
2022/04/22 10:10:33;;;;;;;25.37;19.65;;;;;;;7.26;86.35;99454.30;1672223;84;21130;-75
2022/04/22 10:13:04;;;;;;;27.55;19.62;;;;;;;7.29;86.44;99445.07;1661657;84;20976;-74
2022/04/22 10:15:35;;;;;;;24.90;19.65;;;;;;;7.32;86.50;99446.31;1653406;86;21320;-75
2022/04/22 10:18:04;;;;;;;25.72;19.30;;;;;;;7.33;86.49;99458.52;1676251;84;21072;-75
2022/04/22 10:20:32;;;;;;;25.88;20.23;;;;;;;7.34;86.56;99453.68;1675497;84;21664;-74
2022/04/22 10:22:58;;;;;;;28.67;20.77;;;;;;;7.38;86.59;99463.20;1668100;84;21183;-74
2022/04/22 10:25:30;;;;;;;27.93;19.75;;;;;;;7.40;86.58;99466.64;1681970;84;21438;-74
2022/04/22 10:28:05;;;;;;;25.77;19.87;;;;;;;7.39;86.64;99471.45;1683508;84;21085;-74
2022/04/22 10:30:51;;;;;;;25.68;19.60;;;;;;;7.40;86.69;99469.26;1666154;84;21091;-74
2022/04/22 10:33:24;;;;;;;24.20;18.95;;;;;;;7.43;86.66;99470.93;1680865;84;21045;-74
2022/04/22 10:36:03;;;;;;;24.40;19.15;;;;;;;7.43;86.68;99466.58;1683952;84;21148;-74
2022/04/22 10:38:38;;;;;;;25.82;19.67;;;;;;;7.46;86.78;99468.70;1679988;84;22283;-74
2022/04/22 10:41:21;;;;;;;23.27;18.92;;;;;;;7.47;86.77;99467.82;1683590;84;21145;-75
2022/04/22 10:49:37;;;;;;;24.75;19.67;;;;;;;7.48;86.63;99469.52;1675584;84;21058;-74
2022/04/22 10:52:18;;;;;;;26.52;19.32;;;;;;;7.49;86.63;99469.48;1678628;84;21231;-74
2022/04/22 10:55:00;;;;;;;26.25;19.50;;;;;;;7.53;86.60;99465.04;1667712;84;21160;-75
2022/04/22 10:57:31;;;;;;;30.08;20.27;;;;;;;7.56;86.70;99472.83;1682849;83;21091;-74
2022/04/22 11:00:12;;;;;;;25.77;19.55;;;;;;;7.58;86.68;99464.48;1681460;84;21067;-75
2022/04/22 11:02:42;;;;;;;25.92;18.85;;;;;;;7.61;86.68;99460.49;1670901;84;21041;-73
2022/04/22 11:05:26;;;;;;;26.35;18.87;;;;;;;7.64;86.51;99466.97;1679322;84;21135;-75
2022/04/22 11:07:57;;;;;;;24.47;19.52;;;;;;;7.66;86.51;99470.41;1678123;84;21129;-74
2022/04/22 11:10:35;;;;;;;26.20;19.30;;;;;;;7.69;86.49;99473.42;1675817;84;21064;-75
2022/04/22 11:13:02;;;;;;;25.70;18.42;;;;;;;7.71;86.51;99468.54;1672427;84;21105;-74
2022/04/22 11:15:49;;;;;;;22.20;18.80;;;;;;;7.75;86.44;99467.59;1689419;84;21648;-75
2022/04/22 11:18:16;;;;;;;24.20;19.02;;;;;;;7.79;86.37;99467.06;1687972;84;21290;-74
2022/04/22 11:20:52;;;;;;;24.10;17.82;;;;;;;7.79;86.31;99461.36;1686966;84;21067;-74
2022/04/22 11:23:20;;;;;;;26.12;18.62;;;;;;;7.83;86.25;99465.22;1674203;85;21648;-75
2022/04/22 11:25:46;;;;;;;24.18;18.20;;;;;;;7.87;86.12;99461.62;1665154;84;21582;-74
2022/04/22 11:28:14;;;;;;;23.98;18.32;;;;;;;7.89;86.04;99457.23;1670242;84;21033;-74
2022/04/22 11:30:44;;;;;;;23.22;17.90;;;;;;;7.92;85.93;99455.84;1638366;86;21040;-75
2022/04/22 11:33:23;;;;;;;21.90;17.25;;;;;;;7.93;86.02;99451.84;1660178;85;21082;-75
2022/04/22 11:35:53;;;;;;;26.05;18.75;;;;;;;7.97;86.07;99451.35;1654162;85;21149;-74
2022/04/22 11:38:22;;;;;;;23.38;18.20;;;;;;;8.00;85.89;99453.87;1645859;85;21145;-74
2022/04/22 11:40:50;;;;;;;23.77;18.67;;;;;;;8.02;85.75;99458.64;1658844;85;21035;-74
2022/04/22 11:43:22;;;;;;;27.00;17.52;;;;;;;8.05;85.63;99457.69;1652529;86;21190;-75
2022/04/22 11:45:48;;;;;;;20.70;17.45;;;;;;;8.10;85.60;99453.19;1667910;84;21186;-74
2022/04/22 11:48:22;;;;;;;23.52;17.25;;;;;;;8.16;85.54;99459.14;1675649;84;21234;-74
2022/04/22 11:50:50;;;;;;;22.75;17.67;;;;;;;8.22;85.38;99457.25;1668745;84;21108;-74
2022/04/22 11:53:35;;;;;;;22.52;17.67;;;;;;;8.26;85.24;99457.61;1673664;84;21044;-75
2022/04/22 11:56:01;;;;;;;22.20;17.65;;;;;;;8.30;85.29;99452.22;1665504;84;21223;-74
2022/04/22 11:58:28;;;;;;;21.82;17.10;;;;;;;8.37;85.21;99446.36;1668864;84;21012;-74
2022/04/22 12:06:31;;;;;;;21.68;15.90;;;;;;;8.47;84.66;99447.90;1662440;84;21042;-74
2022/04/22 12:09:03;;;;;;;20.62;15.48;;;;;;;8.50;84.56;99449.09;1655536;84;21132;-74
2022/04/22 12:11:30;;;;;;;19.98;16.57;;;;;;;8.54;84.61;99449.44;1655368;85;21543;-74
2022/04/22 12:13:57;;;;;;;21.62;16.27;;;;;;;8.60;84.37;99444.92;1652718;84;21116;-73
2022/04/22 12:16:28;;;;;;;19.27;15.13;;;;;;;8.65;84.20;99441.72;1658630;85;21701;-75
2022/04/22 12:18:56;;;;;;;23.55;16.23;;;;;;;8.69;84.02;99439.41;1680742;84;21109;-74
2022/04/22 12:21:25;;;;;;;20.27;16.07;;;;;;;8.73;83.83;99441.06;1676432;84;20982;-74
2022/04/22 12:23:54;;;;;;;21.48;14.73;;;;;;;8.76;83.64;99438.36;1672758;84;21815;-75
2022/04/22 12:26:25;;;;;;;23.45;15.88;;;;;;;8.79;83.14;99438.70;1675352;84;21088;-74
2022/04/22 12:29:09;;;;;;;21.30;15.63;;;;;;;8.82;83.07;99432.91;1668504;84;21058;-73
2022/04/22 12:31:40;;;;;;;20.55;15.58;;;;;;;8.82;82.98;99434.22;1678058;84;21061;-74
2022/04/22 12:34:12;;;;;;;17.15;14.60;;;;;;;8.82;82.80;99432.91;1673722;84;21130;-73